Time;durP1;ratioP1;P1;durP2;ratioP2;P2;SDS_P1;SDS_P2;PMS_P1;PMS_P2;Temp;Humidity;BMP_temperature;BMP_pressure;BME280_temperature;BME280_humidity;BME280_pressure;Samples;Min_cycle;Max_cycle;Signal;HPM_P1;HPM_P2
2023/01/10 00:01:55;;;;;;;;;;;;;;;;;;4951762;28;20328;-78
2023/01/10 00:04:21;;;;;;;;;;;;;;;;;;4964626;28;19930;-78
2023/01/10 00:06:47;;;;;;;;;;;;;;;;;;4966069;28;20149;-78
2023/01/10 00:09:13;;;;;;;;;;;;;;;;;;4983440;28;19923;-78
2023/01/10 00:14:23;;;;;;;;;;;;;;;;;;4967273;28;19938;-78
2023/01/10 00:16:49;;;;;;;;;;;;;;;;;;4967070;28;20308;-78
2023/01/10 00:19:15;;;;;;;;;;;;;;;;;;4967518;28;19955;-78
2023/01/10 00:21:41;;;;;;;;;;;;;;;;;;4969088;28;19929;-79
2023/01/10 00:24:21;;;;;;;0.13;0.13;;;;;;;;;;4964454;28;20657;-80
2023/01/10 00:26:49;;;;;;;0.10;0.10;;;;;;;;;;4965468;28;20042;-79
2023/01/10 00:29:26;;;;;;;0.10;0.10;;;;;;;;;;4949129;28;20515;-80
2023/01/10 00:31:52;;;;;;;0.10;0.10;;;;;;;;;;4967953;28;20371;-76
2023/01/10 00:34:19;;;;;;;0.10;0.10;;;;;;;;;;4965884;28;20443;-77
2023/01/10 00:36:46;;;;;;;0.10;0.10;;;;;;;;;;4967531;28;20067;-77
2023/01/10 00:39:13;;;;;;;0.10;0.10;;;;;;;;;;4968332;28;20047;-77
2023/01/10 00:44:24;;;;;;;3.42;3.20;;;;;;;;;;4974564;28;20108;-77
2023/01/10 00:46:51;;;;;;;0.10;0.10;;;;;;;;;;4954418;28;20054;-75
2023/01/10 00:49:17;;;;;;;0.10;0.10;;;;;;;;;;4955623;28;20057;-76
2023/01/10 00:51:44;;;;;;;0.10;0.10;;;;;;;;;;4952755;28;20142;-75
2023/01/10 00:54:10;;;;;;;0.10;0.10;;;;;;;;;;4988552;28;20193;-76
2023/01/10 00:56:36;;;;;;;0.10;0.10;;;;;;;;;;4955128;28;20043;-75
2023/01/10 00:59:03;;;;;;;0.10;0.10;;;;;;;;;;4954739;28;20042;-75
2023/01/10 01:01:29;;;;;;;0.10;0.10;;;;;;;;;;4936072;28;20051;-75
2023/01/10 01:03:55;;;;;;;0.10;0.10;;;;;;;;;;4955717;28;20628;-75
2023/01/10 01:06:21;;;;;;;0.10;0.10;;;;;;;;;;4954467;28;20057;-75
2023/01/10 01:08:47;;;;;;;0.10;0.10;;;;;;;;;;4954584;28;20062;-76
2023/01/10 01:11:13;;;;;;;0.10;0.10;;;;;;;;;;4953318;28;20042;-77
2023/01/10 01:13:39;;;;;;;0.10;0.10;;;;;;;;;;4953636;28;20050;-77
2023/01/10 01:16:05;;;;;;;0.10;0.10;;;;;;;;;;4953049;28;20047;-76
2023/01/10 01:18:31;;;;;;;0.10;0.10;;;;;;;;;;4955143;28;20055;-77
2023/01/10 01:21:01;;;;;;;0.10;0.10;;;;;;;;;;4954581;28;20058;-76
2023/01/10 01:23:28;;;;;;;0.10;0.10;;;;;;;;;;4956790;28;20604;-77
2023/01/10 01:25:54;;;;;;;0.10;0.10;;;;;;;;;;4958611;28;20047;-76
2023/01/10 01:28:23;;;;;;;0.10;0.10;;;;;;;;;;4959626;28;20058;-76
2023/01/10 01:30:50;;;;;;;0.10;0.10;;;;;;;;;;4957868;28;20497;-76
2023/01/10 01:33:16;;;;;;;0.10;0.10;;;;;;;;;;4945371;28;20070;-75
2023/01/10 01:35:43;;;;;;;0.10;0.10;;;;;;;;;;4945036;28;20050;-75
2023/01/10 01:38:09;;;;;;;0.10;0.10;;;;;;;;;;4956745;28;20062;-76
2023/01/10 01:40:37;;;;;;;0.10;0.10;;;;;;;;;;4955785;28;20058;-76
2023/01/10 01:43:03;;;;;;;0.10;0.10;;;;;;;;;;4955708;28;20402;-75
2023/01/10 01:45:37;;;;;;;1.65;1.55;;;;;;;;;;4940812;28;20409;-75
2023/01/10 01:48:03;;;;;;;0.10;0.10;;;;;;;;;;4936964;28;21495;-76
2023/01/10 01:50:45;;;;;;;0.10;0.10;;;;;;;;;;4936821;28;20046;-76
2023/01/10 01:53:32;;;;;;;0.10;0.10;;;;;;;;;;4937679;28;20050;-76
2023/01/10 01:56:08;;;;;;;0.10;0.10;;;;;;;;;;4937481;28;20049;-76
2023/01/10 01:59:01;;;;;;;0.10;0.10;;;;;;;;;;4937426;28;20285;-76
2023/01/10 02:01:28;;;;;;;0.10;0.10;;;;;;;;;;4933919;28;20110;-75
2023/01/10 02:03:57;;;;;;;0.10;0.10;;;;;;;;;;4938729;28;20054;-76
2023/01/10 02:06:24;;;;;;;0.10;0.10;;;;;;;;;;4924878;28;20043;-75
2023/01/10 02:08:54;;;;;;;11.75;3.35;;;;;;;;;;4936992;28;20066;-76
2023/01/10 02:11:20;;;;;;;0.70;0.65;;;;;;;;;;4936504;28;20130;-75
2023/01/10 02:13:47;;;;;;;0.10;0.10;;;;;;;;;;4934929;28;20051;-75
2023/01/10 02:16:14;;;;;;;0.10;0.10;;;;;;;;;;4937282;28;20724;-76
2023/01/10 02:18:41;;;;;;;0.10;0.10;;;;;;;;;;4936764;28;20055;-75
2023/01/10 02:21:16;;;;;;;0.10;0.10;;;;;;;;;;4938290;28;20042;-76
2023/01/10 02:23:42;;;;;;;0.10;0.10;;;;;;;;;;4937802;28;20047;-76
2023/01/10 02:26:24;;;;;;;0.45;0.45;;;;;;;;;;4937485;28;20604;-76
2023/01/10 02:29:04;;;;;;;1.85;1.75;;;;;;;;;;4937383;28;20077;-76
2023/01/10 02:31:49;;;;;;;0.10;0.10;;;;;;;;;;4937843;28;20070;-76
2023/01/10 02:34:35;;;;;;;0.10;0.10;;;;;;;;;;4968656;28;20398;-76
2023/01/10 02:37:12;;;;;;;0.10;0.10;;;;;;;;;;4935142;28;20051;-77
2023/01/10 02:39:38;;;;;;;0.10;0.10;;;;;;;;;;4937285;28;20055;-76
2023/01/10 02:42:07;;;;;;;0.10;0.10;;;;;;;;;;4936215;28;20602;-77
2023/01/10 02:44:45;;;;;;;0.10;0.10;;;;;;;;;;4935732;28;20284;-76
2023/01/10 02:47:13;;;;;;;0.10;0.10;;;;;;;;;;4935965;28;20051;-76
2023/01/10 02:49:46;;;;;;;0.10;0.10;;;;;;;;;;4992240;28;20153;-76
2023/01/10 02:52:16;;;;;;;0.95;0.90;;;;;;;;;;4938156;28;20620;-76
2023/01/10 02:54:42;;;;;;;0.10;0.10;;;;;;;;;;4936965;28;20048;-77
2023/01/10 02:57:20;;;;;;;0.10;0.10;;;;;;;;;;4936755;28;20054;-76
2023/01/10 02:59:56;;;;;;;0.10;0.10;;;;;;;;;;4937297;28;20051;-76
2023/01/10 03:02:37;;;;;;;0.10;0.10;;;;;;;;;;4970112;28;20059;-76
2023/01/10 03:05:03;;;;;;;0.00;0.00;;;;;;;;;;4937429;28;20076;-77
2023/01/10 03:07:39;;;;;;;0.10;0.10;;;;;;;;;;4937815;28;20065;-77
2023/01/10 03:10:18;;;;;;;0.10;0.10;;;;;;;;;;4969370;28;20062;-76
2023/01/10 03:12:55;;;;;;;0.73;0.73;;;;;;;;;;4936377;28;20070;-76
2023/01/10 03:15:23;;;;;;;0.10;0.10;;;;;;;;;;4937242;28;20153;-76
2023/01/10 03:17:53;;;;;;;0.10;0.10;;;;;;;;;;4933497;28;20047;-76
2023/01/10 03:20:20;;;;;;;0.10;0.10;;;;;;;;;;4937776;28;20043;-76
2023/01/10 03:22:46;;;;;;;0.10;0.10;;;;;;;;;;4937094;28;20058;-76
2023/01/10 03:25:14;;;;;;;0.10;0.10;;;;;;;;;;4937100;28;20055;-77
2023/01/10 03:28:04;;;;;;;0.10;0.10;;;;;;;;;;4935296;28;20051;-77
2023/01/10 03:30:40;;;;;;;0.10;0.10;;;;;;;;;;4953461;28;20035;-76
2023/01/10 03:33:06;;;;;;;0.10;0.10;;;;;;;;;;4936395;28;20402;-76
2023/01/10 03:35:44;;;;;;;0.10;0.10;;;;;;;;;;4939145;28;20065;-77
2023/01/10 03:38:15;;;;;;;0.10;0.10;;;;;;;;;;4935357;28;20051;-77
2023/01/10 03:41:08;;;;;;;0.10;0.10;;;;;;;;;;4937906;28;20047;-76
2023/01/10 03:46:44;;;;;;;0.10;0.10;;;;;;;;;;4954367;28;20068;-76
2023/01/10 03:49:10;;;;;;;0.10;0.10;;;;;;;;;;4954270;28;20065;-76
2023/01/10 03:51:37;;;;;;;0.10;0.10;;;;;;;;;;4958475;28;20046;-76
2023/01/10 03:54:03;;;;;;;0.10;0.10;;;;;;;;;;4955904;28;20099;-76
2023/01/10 03:56:29;;;;;;;0.10;0.10;;;;;;;;;;4955182;28;21313;-76
2023/01/10 03:58:55;;;;;;;0.10;0.10;;;;;;;;;;4953844;28;20042;-76
2023/01/10 04:01:21;;;;;;;0.10;0.10;;;;;;;;;;4956512;28;20509;-76
2023/01/10 04:03:47;;;;;;;0.10;0.10;;;;;;;;;;4987412;28;20078;-76
2023/01/10 04:06:16;;;;;;;0.10;0.10;;;;;;;;;;4939198;28;20049;-75
2023/01/10 04:08:42;;;;;;;0.10;0.10;;;;;;;;;;4955794;28;20138;-76
2023/01/10 04:11:08;;;;;;;0.10;0.10;;;;;;;;;;4944890;28;20049;-76
2023/01/10 04:13:34;;;;;;;0.10;0.10;;;;;;;;;;4953562;28;20038;-76
2023/01/10 04:16:00;;;;;;;0.10;0.10;;;;;;;;;;4954974;28;20046;-74
2023/01/10 04:18:26;;;;;;;0.10;0.10;;;;;;;;;;4974368;28;20496;-76
2023/01/10 04:20:52;;;;;;;0.20;0.20;;;;;;;;;;4953386;28;20081;-76
2023/01/10 04:23:18;;;;;;;0.10;0.10;;;;;;;;;;4953616;28;20041;-76
2023/01/10 04:25:46;;;;;;;0.10;0.10;;;;;;;;;;4953540;28;20054;-76
2023/01/10 04:28:12;;;;;;;0.10;0.10;;;;;;;;;;4954563;28;20048;-75
2023/01/10 04:30:38;;;;;;;0.10;0.10;;;;;;;;;;4952366;28;20167;-76
2023/01/10 04:33:06;;;;;;;0.10;0.10;;;;;;;;;;4954253;28;20380;-74
2023/01/10 04:35:32;;;;;;;0.10;0.10;;;;;;;;;;4939493;28;20053;-76
2023/01/10 04:37:58;;;;;;;0.10;0.10;;;;;;;;;;4952996;28;20052;-75
2023/01/10 04:40:24;;;;;;;0.10;0.10;;;;;;;;;;4954173;28;20111;-81
2023/01/10 04:42:50;;;;;;;0.10;0.10;;;;;;;;;;4954140;28;20389;-81
2023/01/10 04:45:19;;;;;;;0.13;0.13;;;;;;;;;;4956354;28;20054;-81
2023/01/10 04:47:49;;;;;;;0.10;0.10;;;;;;;;;;4954599;28;20050;-79
2023/01/10 04:50:15;;;;;;;0.10;0.10;;;;;;;;;;4956978;28;20058;-80
2023/01/10 04:52:42;;;;;;;0.10;0.10;;;;;;;;;;4954832;28;20134;-79
2023/01/10 04:55:08;;;;;;;0.10;0.10;;;;;;;;;;4976574;28;20042;-77
2023/01/10 04:57:34;;;;;;;0.10;0.10;;;;;;;;;;4954081;28;21389;-77
2023/01/10 05:00:00;;;;;;;0.10;0.10;;;;;;;;;;4954022;28;20075;-77
2023/01/10 05:02:27;;;;;;;0.10;0.10;;;;;;;;;;4955724;28;20042;-77
2023/01/10 05:04:53;;;;;;;0.10;0.10;;;;;;;;;;4986445;28;20057;-77
2023/01/10 05:07:19;;;;;;;0.10;0.10;;;;;;;;;;4955282;28;20038;-77
2023/01/10 05:09:45;;;;;;;0.10;0.10;;;;;;;;;;4955238;28;20055;-76
2023/01/10 05:12:11;;;;;;;0.10;0.10;;;;;;;;;;4953235;28;20050;-77
2023/01/10 05:14:37;;;;;;;0.10;0.10;;;;;;;;;;4954550;28;20545;-78
2023/01/10 05:17:03;;;;;;;0.10;0.10;;;;;;;;;;4953159;28;20120;-77
2023/01/10 05:19:29;;;;;;;0.10;0.10;;;;;;;;;;4972250;28;20049;-77
2023/01/10 05:21:55;;;;;;;0.10;0.10;;;;;;;;;;4956521;28;20056;-77
2023/01/10 05:24:21;;;;;;;0.40;0.40;;;;;;;;;;4956811;28;20055;-77
2023/01/10 05:26:47;;;;;;;0.10;0.10;;;;;;;;;;4972420;28;20046;-77
2023/01/10 05:29:13;;;;;;;0.10;0.10;;;;;;;;;;4956089;28;20256;-78
2023/01/10 05:31:40;;;;;;;0.10;0.10;;;;;;;;;;4956153;28;20046;-77
2023/01/10 05:34:07;;;;;;;0.10;0.10;;;;;;;;;;4956517;28;20141;-77
2023/01/10 05:36:33;;;;;;;0.10;0.10;;;;;;;;;;4988030;28;20046;-77
2023/01/10 05:38:59;;;;;;;0.10;0.10;;;;;;;;;;4955709;28;20504;-78
2023/01/10 05:41:25;;;;;;;0.10;0.10;;;;;;;;;;4956135;28;20493;-77
2023/01/10 05:43:52;;;;;;;0.10;0.10;;;;;;;;;;4956270;28;20058;-77
2023/01/10 05:46:18;;;;;;;0.10;0.10;;;;;;;;;;4972283;28;20500;-77
2023/01/10 05:48:44;;;;;;;0.10;0.10;;;;;;;;;;4956993;28;20546;-77
2023/01/10 05:51:10;;;;;;;0.10;0.10;;;;;;;;;;4956216;28;22245;-78
2023/01/10 05:53:36;;;;;;;0.10;0.10;;;;;;;;;;4988606;28;20286;-78
2023/01/10 05:56:03;;;;;;;0.10;0.10;;;;;;;;;;4956326;28;20043;-77
2023/01/10 05:58:29;;;;;;;0.10;0.10;;;;;;;;;;4939783;28;20042;-77
2023/01/10 06:00:56;;;;;;;0.10;0.10;;;;;;;;;;4955843;28;20680;-78
2023/01/10 06:03:23;;;;;;;0.10;0.10;;;;;;;;;;4956357;28;20046;-78
2023/01/10 06:05:49;;;;;;;0.10;0.10;;;;;;;;;;4944927;28;20165;-77
2023/01/10 06:08:16;;;;;;;0.10;0.10;;;;;;;;;;4955032;28;20177;-78
2023/01/10 06:10:42;;;;;;;0.10;0.10;;;;;;;;;;4959965;28;20054;-77
2023/01/10 06:13:08;;;;;;;0.10;0.10;;;;;;;;;;4958607;28;20165;-78
2023/01/10 06:15:35;;;;;;;0.10;0.10;;;;;;;;;;4991413;28;20050;-77
2023/01/10 06:18:01;;;;;;;0.10;0.10;;;;;;;;;;4966077;28;20061;-78
2023/01/10 06:20:27;;;;;;;0.10;0.10;;;;;;;;;;4977764;28;20121;-78
2023/01/10 06:22:53;;;;;;;0.10;0.10;;;;;;;;;;4960315;28;20096;-78
2023/01/10 06:25:19;;;;;;;0.13;0.13;;;;;;;;;;4959172;28;20049;-78
2023/01/10 06:27:46;;;;;;;0.10;0.10;;;;;;;;;;4958890;28;20053;-77
2023/01/10 06:30:13;;;;;;;0.10;0.10;;;;;;;;;;4958947;28;20516;-77
2023/01/10 06:32:39;;;;;;;0.10;0.10;;;;;;;;;;4959606;28;20053;-77
2023/01/10 06:35:06;;;;;;;0.10;0.10;;;;;;;;;;4958662;28;20042;-78
2023/01/10 06:37:32;;;;;;;0.10;0.10;;;;;;;;;;5014748;28;20053;-78
2023/01/10 06:39:58;;;;;;;0.10;0.10;;;;;;;;;;4957713;28;20519;-78
2023/01/10 06:42:24;;;;;;;0.10;0.10;;;;;;;;;;4959333;28;20046;-78
2023/01/10 06:44:50;;;;;;;0.00;0.00;;;;;;;;;;4959122;28;20152;-77
2023/01/10 06:47:17;;;;;;;0.10;0.10;;;;;;;;;;4958072;28;20052;-78
2023/01/10 06:49:43;;;;;;;0.10;0.10;;;;;;;;;;4958922;28;20084;-77
2023/01/10 06:52:09;;;;;;;0.10;0.10;;;;;;;;;;4958990;28;20877;-78
2023/01/10 06:54:35;;;;;;;0.10;0.10;;;;;;;;;;4942834;28;20477;-78
2023/01/10 06:57:01;;;;;;;0.10;0.10;;;;;;;;;;4946712;28;20052;-78
2023/01/10 06:59:27;;;;;;;0.10;0.10;;;;;;;;;;4942518;28;20046;-77
2023/01/10 07:01:53;;;;;;;0.10;0.10;;;;;;;;;;4958973;28;20045;-77
2023/01/10 07:04:19;;;;;;;0.20;0.20;;;;;;;;;;4946515;28;20690;-77
2023/01/10 07:06:45;;;;;;;0.10;0.10;;;;;;;;;;4974427;28;20157;-76
2023/01/10 07:09:11;;;;;;;0.10;0.10;;;;;;;;;;4957432;28;20046;-77
2023/01/10 07:11:37;;;;;;;0.10;0.10;;;;;;;;;;4958376;28;20042;-77
2023/01/10 07:14:03;;;;;;;0.10;0.10;;;;;;;;;;4956728;28;20045;-77
2023/01/10 07:16:29;;;;;;;0.30;0.22;;;;;;;;;;4958257;28;20099;-77
2023/01/10 07:18:56;;;;;;;0.10;0.10;;;;;;;;;;4944692;28;20046;-77
2023/01/10 07:21:22;;;;;;;0.10;0.10;;;;;;;;;;4979527;28;20107;-77
2023/01/10 07:23:48;;;;;;;0.10;0.10;;;;;;;;;;4957601;28;20056;-77
2023/01/10 07:26:16;;;;;;;0.75;0.57;;;;;;;;;;4991139;28;20038;-77
2023/01/10 07:28:43;;;;;;;0.10;0.10;;;;;;;;;;4959179;28;20039;-77
2023/01/10 07:31:09;;;;;;;0.10;0.10;;;;;;;;;;4977944;28;20081;-77
2023/01/10 07:33:35;;;;;;;0.10;0.10;;;;;;;;;;4957581;28;20171;-77
2023/01/10 07:36:02;;;;;;;0.10;0.10;;;;;;;;;;4957711;28;21528;-78
2023/01/10 07:38:28;;;;;;;0.10;0.10;;;;;;;;;;4957700;28;20054;-77
2023/01/10 07:40:55;;;;;;;0.10;0.10;;;;;;;;;;4957955;28;20057;-77
2023/01/10 07:43:21;;;;;;;0.10;0.10;;;;;;;;;;4958453;28;20042;-78
2023/01/10 07:45:47;;;;;;;0.35;0.35;;;;;;;;;;4926599;28;20690;-78
2023/01/10 07:48:13;;;;;;;0.10;0.10;;;;;;;;;;4937336;28;20485;-78
2023/01/10 07:50:39;;;;;;;0.05;0.05;;;;;;;;;;4909618;28;20445;-77
2023/01/10 07:53:06;;;;;;;0.50;0.50;;;;;;;;;;4924716;28;20065;-79
2023/01/10 07:55:35;;;;;;;0.10;0.10;;;;;;;;;;4920826;28;20134;-77
2023/01/10 07:58:01;;;;;;;0.10;0.10;;;;;;;;;;4936005;28;20051;-77
2023/01/10 08:00:27;;;;;;;0.10;0.10;;;;;;;;;;4936416;28;20140;-77
2023/01/10 08:02:53;;;;;;;0.43;0.38;;;;;;;;;;4918977;28;20074;-78
2023/01/10 08:05:20;;;;;;;0.10;0.10;;;;;;;;;;4920968;28;20432;-76
2023/01/10 08:07:49;;;;;;;0.10;0.10;;;;;;;;;;4920259;28;20039;-77
2023/01/10 08:10:15;;;;;;;0.10;0.10;;;;;;;;;;4969642;28;20082;-77
2023/01/10 08:12:41;;;;;;;0.10;0.10;;;;;;;;;;4936403;28;20941;-77
2023/01/10 08:15:07;;;;;;;0.10;0.10;;;;;;;;;;4935213;28;20096;-78
2023/01/10 08:17:34;;;;;;;0.10;0.10;;;;;;;;;;4935625;28;20074;-77
2023/01/10 08:20:00;;;;;;;0.10;0.10;;;;;;;;;;4936128;28;21515;-78
2023/01/10 08:22:26;;;;;;;0.10;0.10;;;;;;;;;;4934920;28;20514;-77
2023/01/10 08:24:52;;;;;;;0.10;0.10;;;;;;;;;;4938017;28;20493;-77
2023/01/10 08:27:18;;;;;;;0.10;0.10;;;;;;;;;;4936382;28;20129;-77
2023/01/10 08:29:44;;;;;;;0.10;0.10;;;;;;;;;;4936632;28;20493;-77
2023/01/10 08:32:11;;;;;;;0.10;0.10;;;;;;;;;;4934231;28;20133;-78
2023/01/10 08:34:37;;;;;;;0.10;0.10;;;;;;;;;;4936865;28;20053;-78
2023/01/10 08:37:03;;;;;;;0.00;0.00;;;;;;;;;;4937096;28;20050;-78
2023/01/10 08:39:29;;;;;;;0.20;0.20;;;;;;;;;;4935480;28;20085;-78
2023/01/10 08:41:56;;;;;;;0.10;0.10;;;;;;;;;;4937133;28;20409;-78
2023/01/10 08:44:22;;;;;;;0.10;0.10;;;;;;;;;;4935559;28;20070;-78
2023/01/10 08:46:48;;;;;;;0.10;0.10;;;;;;;;;;4936444;28;20059;-78
2023/01/10 08:49:14;;;;;;;0.10;0.10;;;;;;;;;;4935353;28;20474;-78
2023/01/10 08:51:40;;;;;;;0.10;0.10;;;;;;;;;;4935458;28;20178;-78
2023/01/10 08:54:06;;;;;;;0.10;0.10;;;;;;;;;;4908372;28;20055;-79
2023/01/10 08:56:34;;;;;;;0.10;0.10;;;;;;;;;;4935001;28;20055;-78
2023/01/10 08:59:01;;;;;;;0.10;0.10;;;;;;;;;;4935926;28;20964;-77
2023/01/10 09:01:27;;;;;;;0.10;0.10;;;;;;;;;;4934964;28;20485;-76
2023/01/10 09:03:53;;;;;;;0.10;0.10;;;;;;;;;;4938068;28;20105;-76
2023/01/10 09:06:19;;;;;;;0.00;0.00;;;;;;;;;;4935827;28;20141;-76
2023/01/10 09:08:45;;;;;;;0.00;0.00;;;;;;;;;;4935669;28;20051;-75
2023/01/10 09:11:11;;;;;;;0.00;0.00;;;;;;;;;;4967273;28;20059;-77
2023/01/10 09:13:38;;;;;;;0.10;0.10;;;;;;;;;;4907525;28;20752;-79
2023/01/10 09:16:05;;;;;;;0.10;0.10;;;;;;;;;;4906594;28;20494;-79
2023/01/10 09:18:32;;;;;;;0.30;0.30;;;;;;;;;;4908800;28;20043;-79
2023/01/10 09:20:59;;;;;;;0.10;0.10;;;;;;;;;;4920041;28;20043;-80
2023/01/10 09:23:25;;;;;;;0.10;0.10;;;;;;;;;;4935116;28;20442;-81
2023/01/10 09:25:52;;;;;;;0.10;0.10;;;;;;;;;;4908304;28;20047;-79
2023/01/10 09:28:19;;;;;;;0.10;0.10;;;;;;;;;;4918658;28;20497;-80
2023/01/10 09:30:45;;;;;;;0.10;0.10;;;;;;;;;;4967935;28;20093;-79
2023/01/10 09:33:12;;;;;;;0.10;0.10;;;;;;;;;;4918548;28;20047;-81
2023/01/10 09:35:39;;;;;;;0.00;0.00;;;;;;;;;;4935679;28;20059;-81
2023/01/10 09:38:06;;;;;;;0.10;0.10;;;;;;;;;;4936244;28;20731;-80
2023/01/10 09:40:44;;;;;;;0.10;0.10;;;;;;;;;;4905424;28;20093;-80
2023/01/10 09:43:10;;;;;;;0.10;0.10;;;;;;;;;;4934399;28;20054;-80
2023/01/10 09:45:48;;;;;;;0.10;0.10;;;;;;;;;;4983765;28;22121;-80
2023/01/10 09:48:30;;;;;;;0.10;0.10;;;;;;;;;;4957560;28;20054;-81
2023/01/10 09:51:08;;;;;;;3.92;1.10;;;;;;;;;;4974724;28;20374;-80
2023/01/10 09:53:37;;;;;;;0.10;0.10;;;;;;;;;;4957452;28;20128;-81
2023/01/10 09:56:05;;;;;;;0.08;0.08;;;;;;;;;;4958484;28;20129;-80
2023/01/10 09:58:34;;;;;;;0.30;0.30;;;;;;;;;;4989797;28;20221;-80
2023/01/10 10:01:04;;;;;;;0.10;0.10;;;;;;;;;;4958562;28;20951;-80
2023/01/10 10:03:30;;;;;;;;;;;;;;;;;;4957995;28;21002;-80
2023/01/10 10:05:56;;;;;;;;;;;;;;;;;;4957953;28;19926;-80
2023/01/10 10:08:22;;;;;;;;;;;;;;;;;;4958126;28;19926;-80
2023/01/10 10:10:48;;;;;;;;;;;;;;;;;;4958310;28;19921;-80
2023/01/10 10:13:14;;;;;;;;;;;;;;;;;;4957744;28;19954;-82
2023/01/10 10:15:39;;;;;;;;;;;;;;;;;;4957874;28;20027;-81
2023/01/10 10:18:05;;;;;;;;;;;;;;;;;;4940453;28;19926;-80
2023/01/10 10:20:31;;;;;;;;;;;;;;;;;;4990606;28;19926;-81
2023/01/10 10:22:57;;;;;;;;;;;;;;;;;;4962709;28;20037;-81
2023/01/10 10:25:23;;;;;;;;;;;;;;;;;;4957069;28;19932;-80
2023/01/10 10:27:49;;;;;;;;;;;;;;;;;;4990857;28;20195;-80
2023/01/10 10:30:15;;;;;;;;;;;;;;;;;;4958303;28;19922;-81
2023/01/10 10:32:41;;;;;;;;;;;;;;;;;;4958433;28;19930;-81
2023/01/10 10:35:07;;;;;;;;;;;;;;;;;;4956131;28;20196;-81
2023/01/10 10:37:33;;;;;;;;;;;;;;;;;;4990354;28;19922;-80
2023/01/10 10:39:59;;;;;;;;;;;;;;;;;;4962578;28;19980;-80
2023/01/10 10:42:25;;;;;;;;;;;;;;;;;;4973998;28;19928;-80
2023/01/10 10:44:51;;;;;;;;;;;;;;;;;;4954394;28;19931;-77
2023/01/10 10:47:17;;;;;;;;;;;;;;;;;;4956681;28;19938;-80
2023/01/10 10:49:43;;;;;;;;;;;;;;;;;;4924386;28;20377;-80
2023/01/10 10:52:09;;;;;;;;;;;;;;;;;;4924436;28;19934;-79
2023/01/10 10:54:35;;;;;;;;;;;;;;;;;;4923229;28;20511;-79
2023/01/10 10:57:01;;;;;;;;;;;;;;;;;;4924085;28;20353;-79
2023/01/10 10:59:27;;;;;;;;;;;;;;;;;;4923296;28;20576;-79
2023/01/10 11:01:53;;;;;;;;;;;;;;;;;;4923912;29;19923;-77
2023/01/10 11:04:18;;;;;;;;;;;;;;;;;;4923561;28;20356;-80
2023/01/10 11:06:47;;;;;;;;;;;;;;;;;;4924197;28;19972;-79
2023/01/10 11:09:14;;;;;;;;;;;;;;;;;;4954895;28;20791;-78
2023/01/10 11:11:40;;;;;;;;;;;;;;;;;;4924077;29;19922;-79
2023/01/10 11:14:06;;;;;;;;;;;;;;;;;;4922985;28;21737;-79
2023/01/10 11:16:32;;;;;;;;;;;;;;;;;;4923949;29;19933;-80
2023/01/10 11:18:58;;;;;;;;;;;;;;;;;;4924526;28;20262;-80
2023/01/10 11:21:24;;;;;;;;;;;;;;;;;;4923243;28;19957;-79
2023/01/10 11:23:50;;;;;;;;;;;;;;;;;;4922827;28;20288;-79
2023/01/10 11:26:16;;;;;;;;;;;;;;;;;;4924097;28;19927;-79
2023/01/10 11:28:44;;;;;;;;;;;;;;;;;;4924292;28;19960;-79
2023/01/10 11:31:10;;;;;;;;;;;;;;;;;;4923765;29;19926;-80
2023/01/10 11:33:38;;;;;;;;;;;;;;;;;;4923296;28;20033;-80
2023/01/10 11:36:04;;;;;;;;;;;;;;;;;;4955888;28;19934;-80
2023/01/10 11:38:30;;;;;;;;;;;;;;;;;;4922378;28;20415;-79
2023/01/10 11:40:56;;;;;;;;;;;;;;;;;;4922637;28;20018;-79
2023/01/10 11:43:22;;;;;;;;;;;;;;;;;;4922193;28;21603;-78
2023/01/10 11:45:48;;;;;;;;;;;;;;;;;;4933856;28;19983;-77
2023/01/10 11:48:14;;;;;;;;;;;;;;;;;;4967377;28;20040;-78
2023/01/10 11:50:40;;;;;;;;;;;;;;;;;;4936347;28;19969;-77
2023/01/10 11:53:06;;;;;;;;;;;;;;;;;;4936035;28;19922;-77
2023/01/10 11:55:32;;;;;;;;;;;;;;;;;;4936221;28;20017;-77
2023/01/10 11:57:58;;;;;;;;;;;;;;;;;;4950222;28;19926;-79
2023/01/10 12:00:24;;;;;;;;;;;;;;;;;;4939509;28;20008;-79
2023/01/10 12:02:51;;;;;;;;;;;;;;;;;;4935091;28;19945;-78
2023/01/10 12:05:17;;;;;;;;;;;;;;;;;;4936813;28;20790;-78
2023/01/10 12:07:43;;;;;;;;;;;;;;;;;;4933433;28;19937;-77
2023/01/10 12:10:09;;;;;;;;;;;;;;;;;;4940135;28;20199;-78
2023/01/10 12:12:37;;;;;;;;;;;;;;;;;;4936705;28;20153;-77
2023/01/10 12:15:03;;;;;;;;;;;;;;;;;;4935762;28;19933;-77
2023/01/10 12:17:29;;;;;;;;;;;;;;;;;;4951771;28;19922;-78
2023/01/10 12:19:57;;;;;;;;;;;;;;;;;;4936364;28;19926;-77
2023/01/10 12:22:23;;;;;;;;;;;;;;;;;;4936078;28;19933;-77
2023/01/10 12:24:49;;;;;;;;;;;;;;;;;;4940221;28;19930;-78
2023/01/10 12:27:15;;;;;;;;;;;;;;;;;;4936585;28;19976;-79
2023/01/10 12:29:41;;;;;;;;;;;;;;;;;;4951731;28;19929;-78
2023/01/10 12:32:07;;;;;;;;;;;;;;;;;;4952262;28;20014;-78
2023/01/10 12:34:33;;;;;;;;;;;;;;;;;;4967537;28;19991;-78
2023/01/10 12:36:59;;;;;;;;;;;;;;;;;;4935265;28;19930;-78
2023/01/10 12:39:25;;;;;;;;;;;;;;;;;;4950645;28;19926;-78
2023/01/10 12:44:36;;;;;;;;;;;;;;;;;;4974481;28;20015;-78
2023/01/10 12:47:02;;;;;;;;;;;;;;;;;;4955566;28;20474;-79
2023/01/10 12:49:27;;;;;;;;;;;;;;;;;;4955394;28;20349;-79
2023/01/10 12:51:53;;;;;;;;;;;;;;;;;;4959918;28;19922;-78
2023/01/10 12:54:19;;;;;;;;;;;;;;;;;;4958873;28;20529;-78
2023/01/10 12:56:45;;;;;;;;;;;;;;;;;;4955244;28;19922;-78
2023/01/10 12:59:11;;;;;;;;;;;;;;;;;;4987197;28;20348;-79
2023/01/10 13:01:41;;;;;;;;;;;;;;;;;;4969114;28;19922;-77
2023/01/10 13:04:07;;;;;;;;;;;;;;;;;;4971226;28;19922;-79
2023/01/10 13:06:33;;;;;;;;;;;;;;;;;;4954476;28;19933;-76
2023/01/10 13:08:59;;;;;;;;;;;;;;;;;;4954348;28;19937;-77
2023/01/10 13:11:25;;;;;;;;;;;;;;;;;;4955011;28;19922;-77
2023/01/10 13:13:51;;;;;;;;;;;;;;;;;;4959829;28;19929;-78
2023/01/10 13:16:17;;;;;;;;;;;;;;;;;;4988031;28;19933;-77
2023/01/10 13:18:43;;;;;;;;;;;;;;;;;;4961484;28;20017;-78
2023/01/10 13:21:12;;;;;;;;;;;;;;;;;;4959743;28;20453;-77
2023/01/10 13:23:38;;;;;;;;;;;;;;;;;;4959301;28;19968;-77
2023/01/10 13:26:04;;;;;;;;;;;;;;;;;;4958872;28;20017;-78
2023/01/10 13:28:30;;;;;;;;;;;;;;;;;;4991760;28;19926;-78
2023/01/10 13:30:56;;;;;;;;;;;;;;;;;;4954323;28;19922;-76
2023/01/10 13:33:22;;;;;;;;;;;;;;;;;;4958901;28;20411;-76
2023/01/10 13:35:48;;;;;;;;;;;;;;;;;;4990970;28;20009;-76
2023/01/10 13:38:14;;;;;;;;;;;;;;;;;;4957004;28;19997;-76
2023/01/10 13:40:40;;;;;;;;;;;;;;;;;;4956150;28;19941;-77
2023/01/10 13:43:19;;;;;;;;;;;;;;;;;;4989950;28;19966;-76
2023/01/10 13:45:44;;;;;;;;;;;;;;;;;;4941057;28;20009;-76
2023/01/10 13:48:10;;;;;;;;;;;;;;;;;;4955426;28;19926;-76
2023/01/10 13:50:41;;;;;;;;;;;;;;;;;;4971592;28;19923;-76
2023/01/10 13:53:07;;;;;;;;;;;;;;;;;;4938722;28;20263;-76
2023/01/10 13:55:33;;;;;;;;;;;;;;;;;;4971972;28;19937;-76
2023/01/10 13:57:59;;;;;;;;;;;;;;;;;;4942819;28;19931;-75
2023/01/10 14:03:10;;;;;;;;;;;;;;;;;;4939508;28;20299;-76
2023/01/10 14:05:36;;;;;;;;;;;;;;;;;;4939133;28;19930;-77
2023/01/10 14:08:02;;;;;;;;;;;;;;;;;;4939819;28;19937;-78
2023/01/10 14:10:28;;;;;;;;;;;;;;;;;;4934136;28;20329;-80
2023/01/10 14:12:54;;;;;;;;;;;;;;;;;;4937437;28;20050;-81
2023/01/10 14:15:20;;;;;;;;;;;;;;;;;;4939307;28;20685;-82
2023/01/10 14:17:46;;;;;;;;;;;;;;;;;;4935948;28;20013;-77
2023/01/10 14:20:12;;;;;;;;;;;;;;;;;;4936714;28;19926;-75
2023/01/10 14:22:37;;;;;;;;;;;;;;;;;;4938124;28;19922;-75
2023/01/10 14:25:03;;;;;;;;;;;;;;;;;;4937276;28;19965;-76
2023/01/10 14:27:29;;;;;;;;;;;;;;;;;;4943179;28;19938;-75
2023/01/10 14:29:55;;;;;;;;;;;;;;;;;;4936976;28;19927;-76
2023/01/10 14:32:21;;;;;;;;;;;;;;;;;;4936229;28;19927;-75
2023/01/10 14:34:48;;;;;;;;;;;;;;;;;;4920207;28;19922;-75
2023/01/10 14:37:14;;;;;;;;;;;;;;;;;;4939085;28;20646;-75
2023/01/10 14:39:40;;;;;;;;;;;;;;;;;;4939635;28;19933;-75
2023/01/10 14:42:06;;;;;;;;;;;;;;;;;;4971276;28;19927;-75
2023/01/10 14:44:32;;;;;;;;;;;;;;;;;;4947822;28;19986;-74
2023/01/10 14:47:01;;;;;;;;;;;;;;;;;;4975880;28;19930;-75
2023/01/10 14:49:27;;;;;;;;;;;;;;;;;;4987486;28;19933;-74
2023/01/10 14:51:59;;;;;;;;;;;;;;;;;;4958217;28;20008;-75
2023/01/10 14:54:25;;;;;;;;;;;;;;;;;;4974891;28;19926;-74
2023/01/10 14:56:51;;;;;;;;;;;;;;;;;;4958400;28;19925;-74
2023/01/10 14:59:17;;;;;;;;;;;;;;;;;;4957597;28;19944;-74
2023/01/10 15:01:43;;;;;;;;;;;;;;;;;;4956392;28;19937;-74
2023/01/10 15:04:09;;;;;;;;;;;;;;;;;;4971234;28;19929;-75
2023/01/10 15:06:35;;;;;;;;;;;;;;;;;;4956154;28;19926;-74
2023/01/10 15:09:02;;;;;;;;;;;;;;;;;;4957656;28;20028;-74
2023/01/10 15:11:28;;;;;;;;;;;;;;;;;;4990562;28;20111;-78
2023/01/10 15:13:54;;;;;;;;;;;;;;;;;;4957753;28;19949;-77
2023/01/10 15:16:20;;;;;;;;;;;;;;;;;;4956477;28;19925;-76
2023/01/10 15:18:46;;;;;;;;;;;;;;;;;;4957634;28;20189;-73
2023/01/10 15:21:12;;;;;;;;;;;;;;;;;;4954600;28;19926;-76
2023/01/10 15:23:38;;;;;;;;;;;;;;;;;;4987323;28;19994;-72
2023/01/10 15:26:04;;;;;;;;;;;;;;;;;;4955528;28;19928;-76
2023/01/10 15:28:30;;;;;;;;;;;;;;;;;;4986963;28;19929;-74
2023/01/10 15:30:57;;;;;;;;;;;;;;;;;;4956056;28;20383;-75
2023/01/10 15:33:23;;;;;;;;;;;;;;;;;;4987911;28;19933;-74
2023/01/10 15:35:49;;;;;;;;;;;;;;;;;;4952878;28;19929;-74
2023/01/10 15:38:15;;;;;;;;;;;;;;;;;;4956183;28;20001;-75
2023/01/10 15:40:41;;;;;;;;;;;;;;;;;;4955219;28;19928;-80
2023/01/10 15:43:06;;;;;;;;;;;;;;;;;;4956539;28;20258;-75